createdAt,value
2023-02-04T00:00:10.268Z,5.45
2023-02-04T00:02:38.862Z,3.90
2023-02-04T00:05:06.288Z,5.95
2023-02-04T00:07:33.673Z,5.45
2023-02-04T00:10:00.874Z,4.90
2023-02-04T00:12:28.169Z,4.20
2023-02-04T00:14:55.489Z,4.68
2023-02-04T00:17:22.775Z,5.15
2023-02-04T00:19:50.021Z,3.78
2023-02-04T00:22:19.545Z,5.93
2023-02-04T00:24:49.905Z,4.07
2023-02-04T00:27:17.608Z,4.00
2023-02-04T00:29:44.841Z,4.18
2023-02-04T00:32:12.281Z,8.40
2023-02-04T00:34:39.647Z,5.88
2023-02-04T00:37:06.928Z,4.68
2023-02-04T00:39:34.153Z,4.45
2023-02-04T00:42:01.420Z,7.78
2023-02-04T00:44:28.609Z,4.10
2023-02-04T00:46:55.793Z,5.63
2023-02-04T00:49:23.020Z,4.88
2023-02-04T00:51:51.347Z,4.97
2023-02-04T00:54:18.645Z,4.70
2023-02-04T00:56:45.900Z,5.82
2023-02-04T00:59:13.106Z,4.70
2023-02-04T01:01:40.396Z,5.03
2023-02-04T01:04:07.698Z,5.72
2023-02-04T01:06:35.191Z,4.78
2023-02-04T01:09:02.431Z,5.15
2023-02-04T01:11:30.142Z,5.50
2023-02-04T01:13:57.154Z,4.22
2023-02-04T01:16:24.230Z,5.30
2023-02-04T01:18:51.379Z,4.45
2023-02-04T01:21:18.663Z,5.30
2023-02-04T01:23:45.666Z,5.15
2023-02-04T01:26:12.726Z,6.03
2023-02-04T01:28:39.697Z,4.70
2023-02-04T01:31:06.817Z,4.50
2023-02-04T01:33:33.844Z,3.83
2023-02-04T01:36:00.852Z,4.80
2023-02-04T01:38:27.890Z,4.95
2023-02-04T01:40:55.095Z,5.28
2023-02-04T01:43:23.096Z,5.57
2023-02-04T01:45:50.529Z,4.68
2023-02-04T01:48:20.376Z,6.05
2023-02-04T01:50:48.468Z,6.07
2023-02-04T01:53:17.253Z,4.10
2023-02-04T01:55:44.316Z,6.13
2023-02-04T01:58:12.975Z,6.32
2023-02-04T02:00:41.022Z,6.55
2023-02-04T02:03:10.812Z,4.90
2023-02-04T02:05:39.903Z,5.95
2023-02-04T02:08:07.998Z,6.25
2023-02-04T02:10:36.273Z,5.05
2023-02-04T02:13:03.915Z,5.13
2023-02-04T02:15:30.922Z,4.53
2023-02-04T02:17:58.177Z,4.95
2023-02-04T02:20:26.452Z,4.65
2023-02-04T02:22:58.998Z,4.85
2023-02-04T02:25:26.018Z,5.15
2023-02-04T02:27:53.289Z,3.97
2023-02-04T02:30:23.543Z,5.70
2023-02-04T02:32:51.448Z,4.93
2023-02-04T02:35:18.984Z,4.20
2023-02-04T02:37:46.030Z,4.45
2023-02-04T02:40:13.627Z,4.10
2023-02-04T02:42:40.700Z,4.03
2023-02-04T02:45:11.999Z,5.15
2023-02-04T02:47:39.005Z,4.80
2023-02-04T02:50:06.164Z,5.85
2023-02-04T02:52:33.239Z,5.55
2023-02-04T02:55:00.243Z,4.57
2023-02-04T02:57:27.264Z,5.68
2023-02-04T02:59:54.297Z,3.80
2023-02-04T03:02:23.894Z,3.80
2023-02-04T03:04:54.172Z,3.35
2023-02-04T03:07:22.113Z,4.47
2023-02-04T03:09:49.396Z,4.78
2023-02-04T03:12:16.491Z,3.92
2023-02-04T03:14:43.513Z,4.30
2023-02-04T03:17:11.253Z,4.78
2023-02-04T03:19:38.414Z,4.97
2023-02-04T03:22:05.888Z,4.18
2023-02-04T03:24:34.378Z,4.68
2023-02-04T03:27:01.750Z,5.28
2023-02-04T03:29:29.855Z,5.35
2023-02-04T03:31:59.853Z,4.70
2023-02-04T03:34:26.949Z,3.35
2023-02-04T03:36:53.956Z,5.57
2023-02-04T03:39:21.009Z,4.88
2023-02-04T03:41:48.014Z,5.95
2023-02-04T03:44:15.246Z,5.68
2023-02-04T03:46:42.201Z,3.78
2023-02-04T03:49:09.189Z,4.72
2023-02-04T03:51:36.206Z,5.47
2023-02-04T03:54:03.973Z,4.35
2023-02-04T03:56:30.976Z,4.13
2023-02-04T03:58:57.965Z,4.55
2023-02-04T04:01:25.125Z,6.78
2023-02-04T04:03:52.156Z,4.55
2023-02-04T04:06:21.640Z,4.88
2023-02-04T04:08:48.665Z,4.97
2023-02-04T04:11:16.039Z,4.60
2023-02-04T04:13:43.073Z,4.97
2023-02-04T04:16:10.184Z,5.55
2023-02-04T04:18:37.289Z,5.28
2023-02-04T04:21:04.448Z,5.25
2023-02-04T04:23:31.480Z,5.15
2023-02-04T04:25:58.530Z,5.90
2023-02-04T04:28:25.558Z,6.03
2023-02-04T04:30:52.634Z,4.43
2023-02-04T04:33:19.661Z,4.78
2023-02-04T04:35:47.961Z,4.80
2023-02-04T04:38:14.991Z,4.43
2023-02-04T04:40:41.985Z,5.25
2023-02-04T04:43:09.025Z,5.38
2023-02-04T04:45:36.021Z,5.78
2023-02-04T04:48:03.085Z,5.40
2023-02-04T04:50:30.329Z,5.45
2023-02-04T04:52:57.591Z,5.40
2023-02-04T04:55:24.571Z,5.57
2023-02-04T04:57:51.736Z,4.90
2023-02-04T05:00:20.406Z,6.32
2023-02-04T05:02:49.999Z,6.40
2023-02-04T05:05:17.022Z,5.78
2023-02-04T05:07:44.071Z,7.97
2023-02-04T05:10:11.234Z,8.73
2023-02-04T05:12:38.428Z,6.65
2023-02-04T05:15:05.742Z,6.18
2023-02-04T05:17:32.763Z,6.70
2023-02-04T05:19:59.734Z,5.75
2023-02-04T05:22:26.701Z,6.03
2023-02-04T05:24:53.671Z,7.90
2023-02-04T05:27:20.665Z,8.00
2023-02-04T05:29:47.732Z,6.47
2023-02-04T05:32:14.839Z,7.63
2023-02-04T05:34:42.029Z,6.35
2023-02-04T05:37:09.022Z,7.45
2023-02-04T05:39:36.010Z,6.70
2023-02-04T05:42:03.062Z,7.07
2023-02-04T05:44:30.051Z,5.78
2023-02-04T05:46:57.063Z,7.40
2023-02-04T05:49:24.714Z,7.25
2023-02-04T05:51:51.689Z,5.93
2023-02-04T05:54:20.430Z,5.60
2023-02-04T05:56:48.025Z,6.68
2023-02-04T05:59:15.120Z,6.95
2023-02-04T06:01:42.249Z,8.27
2023-02-04T06:04:09.340Z,7.50
2023-02-04T06:06:36.491Z,6.93
2023-02-04T06:09:03.607Z,6.07
2023-02-04T06:11:30.649Z,9.02
2023-02-04T06:13:57.714Z,7.78
2023-02-04T06:16:24.778Z,5.85
2023-02-04T06:18:51.821Z,7.00
2023-02-04T06:21:19.119Z,7.38
2023-02-04T06:23:46.524Z,6.55
2023-02-04T06:26:13.711Z,6.88
2023-02-04T06:28:47.377Z,7.83
2023-02-04T06:31:14.568Z,7.97
2023-02-04T06:33:41.642Z,5.68
2023-02-04T06:36:08.859Z,7.00
2023-02-04T06:38:35.836Z,6.43
2023-02-04T06:41:02.960Z,5.93
2023-02-04T06:46:09.545Z,6.90
2023-02-04T06:48:36.581Z,6.03
2023-02-04T06:51:03.699Z,6.30
2023-02-04T06:53:30.668Z,6.63
2023-02-04T06:56:00.479Z,6.90
2023-02-04T07:01:06.916Z,6.60
2023-02-04T07:03:34.033Z,5.43
2023-02-04T07:06:01.074Z,7.75
2023-02-04T07:08:28.141Z,6.25
2023-02-04T07:10:55.186Z,6.78
2023-02-04T07:13:37.586Z,6.38
2023-02-04T07:16:07.531Z,7.10
2023-02-04T07:18:36.602Z,5.35
2023-02-04T07:21:03.633Z,8.52
2023-02-04T07:23:30.630Z,5.85
2023-02-04T07:25:59.356Z,5.68
2023-02-04T07:34:05.056Z,6.20
2023-02-04T07:36:32.112Z,7.38
2023-02-04T07:38:59.153Z,6.40
2023-02-04T07:41:26.116Z,6.40
2023-02-04T07:43:53.107Z,6.13
2023-02-04T07:49:01.413Z,7.38
2023-02-04T07:51:28.428Z,6.63
2023-02-04T07:53:58.476Z,6.35
2023-02-04T07:56:25.463Z,6.85
2023-02-04T07:58:52.462Z,5.93
2023-02-04T08:03:52.869Z,6.72
2023-02-04T08:06:19.998Z,7.18
2023-02-04T08:08:46.992Z,6.80
2023-02-04T08:11:14.080Z,6.70
2023-02-04T08:13:41.177Z,7.35
2023-02-04T08:18:49.361Z,7.15
2023-02-04T08:21:17.851Z,8.23
2023-02-04T08:23:45.832Z,5.85
2023-02-04T08:26:12.832Z,6.18
2023-02-04T08:28:39.852Z,6.72
2023-02-04T08:33:40.266Z,5.55
2023-02-04T08:36:07.946Z,7.03
2023-02-04T08:38:35.312Z,5.68
2023-02-04T08:41:02.548Z,7.47
2023-02-04T08:43:30.255Z,5.75
2023-02-04T08:48:37.370Z,6.53
2023-02-04T08:51:04.510Z,6.30
2023-02-04T08:53:31.521Z,8.23
2023-02-04T08:55:58.522Z,6.68
2023-02-04T08:58:25.849Z,7.32
2023-02-04T09:00:53.127Z,7.22
2023-02-04T09:03:20.528Z,8.70
2023-02-04T09:05:47.677Z,7.00
2023-02-04T09:08:15.933Z,7.78
2023-02-04T09:10:42.962Z,8.63
2023-02-04T09:13:13.221Z,9.07
2023-02-04T09:15:40.344Z,9.40
2023-02-04T09:18:18.791Z,8.80
2023-02-04T09:20:46.140Z,8.30
2023-02-04T09:23:13.464Z,7.82
2023-02-04T09:25:41.020Z,8.00
2023-02-04T09:28:11.298Z,9.30
2023-02-04T09:30:39.062Z,9.30
2023-02-04T09:33:06.156Z,10.30
2023-02-04T09:35:33.176Z,8.77
2023-02-04T09:38:01.977Z,9.48
2023-02-04T09:40:31.757Z,10.02
2023-02-04T09:42:59.804Z,11.05
2023-02-04T09:45:28.145Z,9.55
2023-02-04T09:47:55.854Z,11.00
2023-02-04T09:50:24.590Z,10.65
2023-02-04T09:52:55.888Z,10.88
2023-02-04T09:55:25.716Z,10.52
2023-02-04T09:57:52.714Z,11.13
2023-02-04T10:00:24.591Z,12.52
2023-02-04T10:02:51.915Z,11.77
2023-02-04T10:05:23.049Z,12.32
2023-02-04T10:07:50.059Z,12.13
2023-02-04T10:10:18.555Z,11.15
2023-02-04T10:12:46.230Z,10.10
2023-02-04T10:15:19.313Z,11.65
2023-02-04T10:17:47.117Z,12.27
2023-02-04T10:20:17.753Z,11.50
2023-02-04T10:25:16.224Z,9.07
2023-02-04T10:27:53.615Z,9.65
2023-02-04T10:30:22.210Z,12.10
2023-02-04T10:32:49.353Z,10.05
2023-02-04T10:35:17.657Z,9.23
2023-02-04T10:37:44.846Z,9.70
2023-02-04T10:40:26.561Z,9.20
2023-02-04T10:42:53.611Z,10.38
2023-02-04T10:45:27.424Z,10.77
2023-02-04T10:47:55.456Z,11.18
2023-02-04T10:50:24.472Z,12.02
2023-02-04T10:53:15.968Z,11.50
2023-02-04T10:55:43.708Z,13.73
2023-02-04T10:58:12.813Z,11.40
2023-02-04T11:00:39.823Z,12.45
2023-02-04T11:03:16.127Z,13.25
2023-02-04T11:05:43.170Z,11.73
2023-02-04T11:08:19.600Z,13.90
2023-02-04T11:10:46.712Z,12.07
2023-02-04T11:13:22.399Z,12.48
2023-02-04T11:15:51.086Z,13.27
2023-02-04T11:18:21.117Z,13.88
2023-02-04T11:20:52.043Z,13.43
2023-02-04T11:23:32.107Z,16.05
2023-02-04T11:26:07.575Z,12.55
2023-02-04T11:28:46.736Z,12.35
2023-02-04T11:31:22.747Z,11.40
2023-02-04T11:33:51.047Z,11.13
2023-02-04T11:36:18.510Z,11.30
2023-02-04T11:38:47.207Z,11.93
2023-02-04T11:41:25.804Z,12.75
2023-02-04T11:44:04.158Z,10.95
2023-02-04T11:46:31.173Z,11.18
2023-02-04T11:48:59.600Z,9.57
2023-02-04T11:51:34.293Z,10.65
2023-02-04T11:54:01.350Z,9.77
2023-02-04T11:56:29.391Z,10.05
2023-02-04T11:58:57.724Z,12.13
2023-02-04T12:01:26.068Z,11.50
2023-02-04T12:04:03.090Z,14.52
2023-02-04T12:06:31.846Z,11.70
2023-02-04T12:09:06.720Z,10.57
2023-02-04T12:11:33.996Z,10.57
2023-02-04T12:14:07.096Z,12.05
2023-02-04T12:16:47.568Z,10.45
2023-02-04T12:19:15.019Z,10.65
2023-02-04T12:21:42.169Z,12.60
2023-02-04T12:24:09.178Z,9.23
2023-02-04T12:26:36.165Z,12.07
2023-02-04T12:29:05.508Z,11.48
2023-02-04T12:31:33.596Z,10.55
2023-02-04T12:34:00.696Z,9.80
2023-02-04T12:36:29.583Z,11.35
2023-02-04T12:38:58.687Z,9.57
2023-02-04T12:41:28.374Z,11.90
2023-02-04T12:43:55.605Z,10.97
2023-02-04T12:46:24.126Z,11.95
2023-02-04T12:48:51.701Z,10.73
2023-02-04T12:51:20.866Z,11.00
2023-02-04T12:53:48.322Z,12.55
2023-02-04T12:56:15.870Z,10.77
2023-02-04T12:58:42.847Z,11.05
2023-02-04T13:01:09.949Z,9.45
2023-02-04T13:03:36.971Z,9.05
2023-02-04T13:06:04.237Z,9.40
2023-02-04T13:08:31.279Z,9.38
2023-02-04T13:10:58.363Z,9.27
2023-02-04T13:13:25.577Z,9.60
2023-02-04T13:15:52.619Z,9.68
2023-02-04T13:18:19.608Z,9.13
2023-02-04T13:20:46.646Z,9.05
2023-02-04T13:23:14.076Z,8.82
2023-02-04T13:25:41.503Z,9.18
2023-02-04T13:28:08.484Z,9.88
2023-02-04T13:30:35.649Z,8.63
2023-02-04T13:33:03.704Z,9.93
2023-02-04T13:35:31.114Z,10.02
2023-02-04T13:37:58.317Z,11.40
2023-02-04T13:40:25.308Z,9.95
2023-02-04T13:42:52.327Z,9.45
2023-02-04T13:45:19.443Z,9.20
2023-02-04T13:47:47.821Z,9.52
2023-02-04T13:50:15.323Z,10.60
2023-02-04T13:52:42.281Z,10.35
2023-02-04T13:55:09.432Z,9.18
2023-02-04T13:57:37.752Z,10.43
2023-02-04T14:00:06.733Z,9.88
2023-02-04T14:02:33.958Z,10.25
2023-02-04T14:05:01.604Z,8.80
2023-02-04T14:07:30.318Z,10.23
2023-02-04T14:09:57.346Z,9.55
2023-02-04T14:12:24.318Z,9.85
2023-02-04T14:14:51.472Z,9.48
2023-02-04T14:17:18.485Z,11.30
2023-02-04T14:19:45.520Z,10.82
2023-02-04T14:22:13.128Z,10.32
2023-02-04T14:24:42.499Z,8.70
2023-02-04T14:27:09.974Z,11.23
2023-02-04T14:29:37.087Z,8.73
2023-02-04T14:32:04.213Z,8.55
2023-02-04T14:34:31.291Z,8.13
2023-02-04T14:36:58.478Z,8.32
2023-02-04T14:39:25.502Z,7.65
2023-02-04T14:41:52.728Z,8.05
2023-02-04T14:46:48.060Z,7.47
2023-02-04T14:49:15.672Z,7.65
2023-02-04T14:51:42.980Z,7.93
2023-02-04T14:54:10.113Z,6.90
2023-02-04T14:56:37.124Z,7.50
2023-02-04T14:59:04.199Z,7.00
2023-02-04T15:01:31.678Z,7.85
2023-02-04T15:03:58.699Z,7.97
2023-02-04T15:06:25.733Z,9.30
2023-02-04T15:08:53.025Z,8.60
2023-02-04T15:11:20.087Z,9.13
2023-02-04T15:13:47.125Z,8.82
2023-02-04T15:16:14.803Z,9.40
2023-02-04T15:18:45.194Z,9.18
2023-02-04T15:21:13.044Z,9.32
2023-02-04T15:23:40.449Z,9.25
2023-02-04T15:26:09.967Z,11.00
2023-02-04T15:28:37.225Z,10.13
2023-02-04T15:31:05.187Z,8.13
2023-02-04T15:33:32.682Z,8.50
2023-02-04T15:35:59.676Z,8.85
2023-02-04T15:38:26.694Z,10.75
2023-02-04T15:40:53.730Z,9.65
2023-02-04T15:43:20.722Z,9.23
2023-02-04T15:45:54.944Z,7.30
2023-02-04T15:48:23.966Z,7.53
2023-02-04T15:50:51.336Z,7.70
2023-02-04T15:53:18.530Z,7.63
2023-02-04T15:55:45.759Z,8.02
2023-02-04T15:58:13.082Z,7.35
2023-02-04T16:00:43.683Z,8.35
2023-02-04T16:05:37.546Z,7.82
2023-02-04T16:08:04.624Z,7.53
2023-02-04T16:10:31.882Z,9.15
2023-02-04T16:12:59.861Z,8.23
2023-02-04T16:15:26.880Z,8.63
2023-02-04T16:17:55.984Z,7.10
2023-02-04T16:20:24.704Z,8.05
2023-02-04T16:22:51.670Z,7.90
2023-02-04T16:25:18.754Z,8.63
2023-02-04T16:27:45.854Z,8.43
2023-02-04T16:30:15.914Z,10.18
2023-02-04T16:32:42.934Z,9.55
2023-02-04T16:35:10.169Z,8.13
2023-02-04T16:37:37.658Z,6.53
2023-02-04T16:40:05.674Z,8.07
2023-02-04T16:42:32.701Z,7.07
2023-02-04T16:44:59.821Z,7.82
2023-02-04T16:47:27.165Z,7.60
2023-02-04T16:49:58.963Z,6.55
2023-02-04T16:52:25.933Z,7.40
2023-02-04T16:54:52.943Z,7.05
2023-02-04T16:57:19.954Z,6.75
2023-02-04T16:59:47.022Z,8.85
2023-02-04T17:02:15.339Z,8.00
2023-02-04T17:04:42.366Z,7.15
2023-02-04T17:07:09.399Z,6.75
2023-02-04T17:09:37.002Z,7.03
2023-02-04T17:12:04.227Z,7.88
2023-02-04T17:14:31.354Z,7.20
2023-02-04T17:16:58.409Z,7.00
2023-02-04T17:19:25.453Z,8.68
2023-02-04T17:21:52.478Z,6.78
2023-02-04T17:24:19.552Z,8.95
2023-02-04T17:26:46.545Z,6.22
2023-02-04T17:29:17.129Z,6.75
2023-02-04T17:34:11.414Z,7.40
2023-02-04T17:36:38.794Z,7.20
2023-02-04T17:39:06.046Z,8.52
2023-02-04T17:41:33.023Z,9.68
2023-02-04T17:44:00.206Z,11.45
2023-02-04T17:46:35.042Z,11.45
2023-02-04T17:49:02.497Z,11.60
2023-02-04T17:51:29.529Z,11.23
2023-02-04T17:53:56.569Z,13.10
2023-02-04T17:56:25.146Z,11.88
2023-02-04T17:58:52.164Z,13.63
2023-02-04T18:01:21.746Z,14.82
2023-02-04T18:03:49.583Z,13.40
2023-02-04T18:06:26.923Z,12.10
2023-02-04T18:08:56.675Z,12.30
2023-02-04T18:11:27.987Z,15.73
2023-02-04T18:13:56.306Z,11.65
2023-02-04T18:16:25.876Z,11.80
2023-02-04T18:18:54.890Z,10.27
2023-02-04T18:21:26.593Z,10.55
2023-02-04T18:23:57.216Z,10.00
2023-02-04T18:28:51.241Z,9.23
2023-02-04T18:31:36.393Z,9.93
2023-02-04T18:34:11.796Z,9.32
2023-02-04T18:36:38.986Z,10.27
2023-02-04T18:39:18.146Z,9.57
2023-02-04T18:41:48.433Z,9.43
2023-02-04T18:44:26.716Z,10.50
2023-02-04T18:46:54.846Z,9.55
2023-02-04T18:49:21.832Z,9.73
2023-02-04T18:51:48.881Z,9.10
2023-02-04T18:54:29.545Z,11.18
2023-02-04T18:59:25.431Z,10.63
2023-02-04T19:01:52.544Z,10.27
2023-02-04T19:04:23.740Z,9.32
2023-02-04T19:06:52.972Z,9.90
2023-02-04T19:09:26.982Z,11.38
2023-02-04T19:11:55.505Z,11.18
2023-02-04T19:14:37.314Z,10.35
2023-02-04T19:17:16.949Z,10.75
2023-02-04T19:19:45.165Z,12.23
2023-02-04T19:22:15.429Z,12.00
2023-02-04T19:24:42.604Z,11.70
2023-02-04T19:27:30.524Z,12.02
2023-02-04T19:29:59.697Z,12.73
2023-02-04T19:32:52.290Z,12.88
2023-02-04T19:35:20.960Z,14.40
2023-02-04T19:37:54.870Z,15.70
2023-02-04T19:40:40.114Z,15.90
2023-02-04T19:43:16.972Z,13.55
2023-02-04T19:45:45.096Z,14.95
2023-02-04T19:48:22.881Z,14.23
2023-02-04T19:50:52.835Z,12.68
2023-02-04T19:53:23.731Z,13.98
2023-02-04T19:55:51.652Z,13.20
2023-02-04T19:58:20.355Z,13.55
2023-02-04T20:00:51.340Z,18.83
2023-02-04T20:03:30.935Z,14.98
2023-02-04T20:05:59.802Z,16.15
2023-02-04T20:08:41.264Z,14.20
2023-02-04T20:11:27.049Z,16.48
2023-02-04T20:13:56.141Z,15.52
2023-02-04T20:18:56.284Z,15.85
2023-02-04T20:21:23.247Z,18.30
2023-02-04T20:23:50.250Z,16.20
2023-02-04T20:26:17.273Z,15.95
2023-02-04T20:28:45.705Z,15.45
2023-02-04T20:31:26.569Z,16.17
2023-02-04T20:33:54.917Z,15.25
2023-02-04T20:36:31.291Z,15.85
2023-02-04T20:39:13.822Z,13.77
2023-02-04T20:41:40.832Z,12.52
2023-02-04T20:44:20.426Z,12.98
2023-02-04T20:46:47.429Z,13.13
2023-02-04T20:49:21.637Z,14.43
2023-02-04T20:51:48.677Z,14.02
2023-02-04T20:54:19.016Z,13.23
2023-02-04T20:56:46.162Z,13.15
2023-02-04T20:59:13.191Z,14.57
2023-02-04T21:01:41.389Z,13.93
2023-02-04T21:04:27.658Z,12.80
2023-02-04T21:06:55.567Z,14.55
2023-02-04T21:09:26.412Z,13.82
2023-02-04T21:11:54.325Z,15.93
2023-02-04T21:14:21.790Z,13.50
2023-02-04T21:16:49.110Z,13.30
2023-02-04T21:19:18.000Z,14.07
2023-02-04T21:21:45.246Z,13.77
2023-02-04T21:24:12.285Z,15.60
2023-02-04T21:26:39.567Z,14.40
2023-02-04T21:29:07.074Z,13.88
2023-02-04T21:31:34.260Z,15.00
2023-02-04T21:34:01.327Z,13.85
2023-02-04T21:36:28.407Z,14.40
2023-02-04T21:38:58.710Z,13.88
2023-02-04T21:41:25.708Z,15.30
2023-02-04T21:43:53.665Z,15.32
2023-02-04T21:46:20.935Z,17.15
2023-02-04T21:48:48.055Z,15.85
2023-02-04T21:51:18.066Z,15.00
2023-02-04T21:53:45.188Z,15.23
2023-02-04T21:56:12.253Z,13.40
2023-02-04T21:58:39.344Z,12.18
2023-02-04T22:01:07.062Z,14.75
2023-02-04T22:03:34.157Z,14.65
2023-02-04T22:06:01.218Z,15.10
2023-02-04T22:08:28.276Z,15.63
2023-02-04T22:10:55.525Z,14.68
2023-02-04T22:13:22.552Z,15.30
2023-02-04T22:15:49.618Z,14.98
2023-02-04T22:18:16.700Z,15.63
2023-02-04T22:20:43.743Z,15.00
2023-02-04T22:23:10.729Z,15.65
2023-02-04T22:25:37.695Z,13.32
2023-02-04T22:28:04.896Z,16.50
2023-02-04T22:30:31.953Z,13.65
2023-02-04T22:33:01.546Z,15.88
2023-02-04T22:35:29.687Z,15.55
2023-02-04T22:37:59.961Z,14.82
2023-02-04T22:40:28.068Z,15.45
2023-02-04T22:42:55.122Z,13.32
2023-02-04T22:45:22.125Z,14.48
2023-02-04T22:47:50.308Z,15.73
2023-02-04T22:50:17.444Z,14.73
2023-02-04T22:52:44.565Z,16.02
2023-02-04T22:55:17.120Z,16.13
2023-02-04T22:57:44.101Z,14.35
2023-02-04T23:00:11.506Z,14.75
2023-02-04T23:02:38.549Z,14.10
2023-02-04T23:05:05.967Z,15.75
2023-02-04T23:07:33.019Z,14.57
2023-02-04T23:10:00.170Z,14.88
2023-02-04T23:12:27.175Z,15.57
2023-02-04T23:14:54.171Z,15.38
2023-02-04T23:17:23.672Z,14.18
2023-02-04T23:19:50.697Z,13.85
2023-02-04T23:22:17.794Z,16.90
2023-02-04T23:24:44.973Z,15.23
2023-02-04T23:27:12.565Z,15.10
2023-02-04T23:29:40.009Z,13.77
2023-02-04T23:32:07.574Z,14.15
2023-02-04T23:34:34.715Z,13.38
2023-02-04T23:37:01.756Z,13.90
2023-02-04T23:39:31.051Z,13.85
2023-02-04T23:41:58.085Z,13.98
2023-02-04T23:44:25.156Z,13.52
2023-02-04T23:46:52.201Z,13.02
2023-02-04T23:49:19.233Z,15.30
2023-02-04T23:51:46.299Z,14.50
2023-02-04T23:54:13.413Z,12.85
2023-02-04T23:56:40.536Z,13.27
2023-02-04T23:59:08.297Z,15.38
